Time;durP1;ratioP1;P1;durP2;ratioP2;P2;SDS_P1;SDS_P2;PMS_P1;PMS_P2;Temp;Humidity;BMP_temperature;BMP_pressure;BME280_temperature;BME280_humidity;BME280_pressure;Samples;Min_cycle;Max_cycle;Signal;HPM_P1;HPM_P2
2022/07/04 00:00:27;;;;;;;4.30;3.22;;;;;;;13.01;98.37;101985.06;4988558;28;20030;-63
2022/07/04 00:02:53;;;;;;;4.25;3.40;;;;;;;13.01;98.37;101991.97;4984555;28;20026;-63
2022/07/04 00:05:18;;;;;;;5.05;2.97;;;;;;;12.97;98.30;101984.06;4988875;28;20028;-63
2022/07/04 00:07:47;;;;;;;4.82;2.83;;;;;;;12.96;98.77;101986.59;4987648;28;20076;-63
2022/07/04 00:10:15;;;;;;;4.50;2.67;;;;;;;12.92;98.85;101985.59;4977013;28;20065;-62
2022/07/04 00:12:41;;;;;;;4.97;2.67;;;;;;;12.87;99.12;101978.41;4989110;28;20041;-63
2022/07/04 00:15:07;;;;;;;4.55;2.42;;;;;;;12.83;99.58;101980.91;4988420;28;20034;-62
2022/07/04 00:17:33;;;;;;;5.45;2.38;;;;;;;12.80;99.65;101974.69;4988455;28;20084;-63
2022/07/04 00:19:58;;;;;;;3.28;2.03;;;;;;;12.73;99.60;101976.16;4987982;28;20470;-62
2022/07/04 00:22:24;;;;;;;5.55;2.58;;;;;;;12.69;100.00;101967.34;4988281;28;20554;-62
2022/07/04 00:24:49;;;;;;;3.92;2.20;;;;;;;12.73;100.00;101970.97;4988126;28;20393;-63
2022/07/04 00:27:15;;;;;;;3.60;2.10;;;;;;;12.75;99.60;101976.22;4988642;28;20030;-63
2022/07/04 00:29:40;;;;;;;4.03;2.78;;;;;;;12.69;99.99;101971.66;4988178;28;20102;-63
2022/07/04 00:32:06;;;;;;;3.95;2.40;;;;;;;12.58;100.00;101973.78;4988315;28;20316;-62
2022/07/04 00:34:32;;;;;;;2.90;1.88;;;;;;;12.56;100.00;101970.25;4987707;28;20049;-62
2022/07/04 00:36:57;;;;;;;2.97;1.85;;;;;;;12.59;100.00;101970.38;4988312;28;20022;-62
2022/07/04 00:39:22;;;;;;;5.47;2.53;;;;;;;12.57;100.00;101967.72;4987980;28;20084;-62
2022/07/04 00:41:48;;;;;;;2.95;2.10;;;;;;;12.56;100.00;101971.13;4987309;28;20030;-62
2022/07/04 00:44:13;;;;;;;5.28;2.55;;;;;;;12.58;100.00;101974.69;4987815;28;20367;-62
2022/07/04 00:46:40;;;;;;;4.05;1.90;;;;;;;12.53;100.00;101976.22;4987654;28;20096;-62
2022/07/04 00:49:06;;;;;;;3.17;2.20;;;;;;;12.52;100.00;101973.56;4987716;28;20042;-61
2022/07/04 00:51:32;;;;;;;2.38;2.00;;;;;;;12.48;100.00;101968.19;4987478;28;20096;-61
2022/07/04 00:53:58;;;;;;;4.80;2.10;;;;;;;12.45;100.00;101965.47;4987410;28;20417;-60
2022/07/04 00:56:24;;;;;;;4.18;2.05;;;;;;;12.44;100.00;101963.72;4987870;28;20033;-61
2022/07/04 00:58:50;;;;;;;3.78;2.38;;;;;;;12.44;100.00;101970.63;4988408;28;20400;-61
2022/07/04 01:01:17;;;;;;;3.75;2.47;;;;;;;12.40;100.00;101959.19;4987709;28;20026;-60
2022/07/04 01:03:43;;;;;;;3.15;1.80;;;;;;;12.40;100.00;101969.59;4987395;28;20026;-61
2022/07/04 01:06:09;;;;;;;2.65;2.08;;;;;;;12.38;100.00;101966.03;4985463;28;20113;-61
2022/07/04 01:08:42;;;;;;;3.47;2.20;;;;;;;12.38;100.00;101960.84;4976692;28;20217;-61
2022/07/04 01:11:09;;;;;;;4.22;2.20;;;;;;;12.36;100.00;101957.28;4987218;28;20043;-60
2022/07/04 01:13:34;;;;;;;3.53;2.25;;;;;;;12.30;100.00;101962.25;4987785;28;20428;-61
2022/07/04 01:16:00;;;;;;;5.22;2.20;;;;;;;12.29;100.00;101960.44;4987451;28;20509;-59
2022/07/04 01:18:25;;;;;;;4.53;2.55;;;;;;;12.27;100.00;101962.13;4987540;28;20130;-60
2022/07/04 01:20:51;;;;;;;3.72;2.58;;;;;;;12.18;100.00;101957.41;4988045;28;20084;-61
2022/07/04 01:23:17;;;;;;;6.10;2.67;;;;;;;12.11;100.00;101945.84;4987712;28;20359;-60
2022/07/04 01:25:42;;;;;;;3.97;2.78;;;;;;;12.05;100.00;101945.56;4988115;28;20030;-60
2022/07/04 01:28:08;;;;;;;3.08;2.72;;;;;;;12.03;100.00;101942.91;4986879;28;20050;-60
2022/07/04 01:30:35;;;;;;;5.38;2.97;;;;;;;12.04;100.00;101943.75;4975524;28;20096;-60
2022/07/04 01:33:00;;;;;;;4.38;2.88;;;;;;;12.04;100.00;101933.38;4987365;28;20026;-60
2022/07/04 01:35:26;;;;;;;3.30;3.00;;;;;;;12.04;100.00;101938.56;4987527;28;20382;-59
2022/07/04 01:37:51;;;;;;;5.43;2.92;;;;;;;12.01;100.00;101934.13;4987883;28;20376;-58
2022/07/04 01:40:17;;;;;;;4.93;2.85;;;;;;;12.04;100.00;101938.56;4987761;28;20465;-61
2022/07/04 01:42:43;;;;;;;4.07;3.00;;;;;;;12.03;100.00;101936.81;4987800;28;20042;-59
2022/07/04 01:45:10;;;;;;;5.13;3.15;;;;;;;12.03;100.00;101934.22;4987039;28;20057;-60
2022/07/04 01:47:36;;;;;;;4.97;3.08;;;;;;;12.01;100.00;101929.84;4987738;28;20088;-59
2022/07/04 01:50:03;;;;;;;3.20;2.90;;;;;;;11.99;100.00;101926.28;4987438;28;20045;-59
2022/07/04 01:52:29;;;;;;;3.70;3.15;;;;;;;11.95;100.00;101929.56;4987137;28;20784;-60
2022/07/04 01:54:54;;;;;;;4.20;3.08;;;;;;;11.92;100.00;101924.25;4987836;28;20064;-60
2022/07/04 01:57:19;;;;;;;3.55;3.25;;;;;;;11.88;100.00;101924.91;4988481;28;20029;-59
2022/07/04 02:02:28;;;;;;;3.75;3.30;;;;;;;11.84;100.00;101923.91;4991631;28;20346;-58
2022/07/04 02:04:54;;;;;;;4.05;3.53;;;;;;;11.81;100.00;101921.16;4991178;28;20026;-60
2022/07/04 02:07:19;;;;;;;3.40;3.10;;;;;;;11.77;100.00;101920.16;4991785;28;20385;-60
2022/07/04 02:09:44;;;;;;;5.57;3.08;;;;;;;11.77;100.00;101924.44;4990622;28;20073;-60
2022/07/04 02:14:54;;;;;;;5.57;3.35;;;;;;;11.78;100.00;101928.84;4990945;28;20032;-59
2022/07/04 02:17:19;;;;;;;5.38;3.60;;;;;;;11.77;100.00;101925.34;4991191;28;20101;-58
2022/07/04 02:19:45;;;;;;;3.80;3.45;;;;;;;11.78;100.00;101915.84;4990798;28;20034;-59
2022/07/04 02:22:10;;;;;;;4.13;3.50;;;;;;;11.75;100.00;101919.19;4990538;28;20539;-60
2022/07/04 02:24:35;;;;;;;5.47;3.58;;;;;;;11.76;100.00;101922.69;4990835;28;20030;-60
2022/07/04 02:27:01;;;;;;;4.82;3.53;;;;;;;11.72;100.00;101920.75;4990839;28;20058;-60
2022/07/04 02:29:26;;;;;;;4.57;3.40;;;;;;;11.70;100.00;101922.38;4990387;28;20028;-60
2022/07/04 02:31:51;;;;;;;3.53;3.05;;;;;;;11.69;100.00;101924.13;4990070;28;20038;-60
2022/07/04 02:34:17;;;;;;;4.07;3.17;;;;;;;11.69;100.00;101926.72;4990730;28;20121;-60
2022/07/04 02:36:42;;;;;;;4.32;3.38;;;;;;;11.67;100.00;101936.13;4990139;28;20498;-60
2022/07/04 02:39:07;;;;;;;4.22;3.03;;;;;;;11.62;100.00;101937.63;4990494;28;20499;-59
2022/07/04 02:41:33;;;;;;;6.65;3.00;;;;;;;11.61;100.00;101938.44;4988546;28;20030;-59
2022/07/04 02:43:59;;;;;;;3.30;2.72;;;;;;;11.59;100.00;101934.88;4984663;28;20495;-59
2022/07/04 02:46:25;;;;;;;3.53;2.95;;;;;;;11.59;100.00;101934.88;4982363;28;20068;-60
2022/07/04 02:48:50;;;;;;;4.45;2.80;;;;;;;11.59;100.00;101934.88;4989971;28;20109;-59
2022/07/04 02:51:15;;;;;;;4.93;3.25;;;;;;;11.56;100.00;101937.34;4989754;28;20371;-60
2022/07/04 02:53:41;;;;;;;4.47;3.10;;;;;;;11.47;100.00;101936.13;4989943;28;20565;-60
2022/07/04 02:56:06;;;;;;;3.25;2.92;;;;;;;11.38;100.00;101935.69;4990156;28;20030;-60
2022/07/04 02:58:32;;;;;;;4.35;2.75;;;;;;;11.37;100.00;101939.13;4989759;28;20073;-59
2022/07/04 03:00:58;;;;;;;4.10;3.15;;;;;;;11.33;100.00;101937.19;4989952;28;20034;-60
2022/07/04 03:03:24;;;;;;;5.40;2.83;;;;;;;11.32;100.00;101937.97;4989896;28;20034;-58
2022/07/04 03:05:49;;;;;;;3.63;2.97;;;;;;;11.33;100.00;101942.38;4990159;28;20041;-60
2022/07/04 03:08:15;;;;;;;4.80;3.08;;;;;;;11.35;100.00;101941.63;4989629;28;20392;-60
2022/07/04 03:10:40;;;;;;;5.80;2.92;;;;;;;11.36;100.00;101947.69;4989467;28;20100;-60
2022/07/04 03:13:05;;;;;;;5.53;3.00;;;;;;;11.36;100.00;101948.59;4988163;28;20026;-60
2022/07/04 03:15:31;;;;;;;3.20;2.90;;;;;;;11.35;100.00;101956.31;4987849;28;20031;-59
2022/07/04 03:17:56;;;;;;;4.53;2.97;;;;;;;11.33;100.00;101963.13;4988501;28;20058;-59
2022/07/04 03:20:22;;;;;;;5.97;3.22;;;;;;;11.32;100.00;101964.84;4987893;28;20146;-59
2022/07/04 03:22:47;;;;;;;4.25;3.33;;;;;;;11.33;100.00;101968.31;4987814;28;20045;-59
2022/07/04 03:25:12;;;;;;;3.83;3.35;;;;;;;11.33;100.00;101964.03;4987877;28;20482;-59
2022/07/04 03:27:38;;;;;;;5.43;3.45;;;;;;;11.32;100.00;101966.53;4988269;28;20533;-59
2022/07/04 03:30:03;;;;;;;4.88;3.17;;;;;;;11.32;100.00;101966.53;4985955;28;20023;-60
2022/07/04 03:32:29;;;;;;;7.05;3.13;;;;;;;11.29;100.00;101968.19;4989202;28;20121;-59
2022/07/04 03:34:54;;;;;;;4.53;3.47;;;;;;;11.30;100.00;101974.25;4989740;28;20026;-58
2022/07/04 03:37:19;;;;;;;4.47;3.20;;;;;;;11.29;100.00;101970.78;4989180;28;20027;-60
2022/07/04 03:39:45;;;;;;;4.13;3.50;;;;;;;11.25;100.00;101971.44;4989359;28;20482;-60
2022/07/04 03:42:10;;;;;;;3.97;3.38;;;;;;;11.19;100.00;101970.28;4988924;28;20061;-60
2022/07/04 03:44:35;;;;;;;5.50;3.40;;;;;;;11.11;100.00;101975.97;4989431;28;20034;-60
2022/07/04 03:47:01;;;;;;;4.03;3.65;;;;;;;11.10;100.00;101978.50;4988703;28;20038;-60
2022/07/04 03:49:26;;;;;;;3.97;3.58;;;;;;;11.05;100.00;101989.53;4989221;28;20034;-60
2022/07/04 03:51:51;;;;;;;5.55;3.72;;;;;;;11.05;100.00;101989.53;4988847;28;20117;-60
2022/07/04 03:54:17;;;;;;;4.82;3.40;;;;;;;11.04;100.00;101992.06;4989312;28;20144;-60
2022/07/04 03:56:42;;;;;;;4.63;3.45;;;;;;;11.05;100.00;101996.44;4989354;28;20241;-61
2022/07/04 03:59:07;;;;;;;5.22;3.65;;;;;;;11.11;100.00;101994.16;4989296;28;20027;-60
2022/07/04 04:01:33;;;;;;;3.65;3.35;;;;;;;11.17;100.00;101998.75;4989143;28;20069;-60
2022/07/04 04:06:42;;;;;;;4.18;3.65;;;;;;;11.28;100.00;102001.81;4976413;28;20398;-60
2022/07/04 04:09:12;;;;;;;3.33;2.70;;;;;;;11.32;100.00;102008.03;4988872;28;20038;-58
2022/07/04 04:11:37;;;;;;;4.70;3.60;;;;;;;11.33;100.00;102005.56;4988479;28;20046;-60
2022/07/04 04:14:02;;;;;;;4.80;3.50;;;;;;;11.36;100.00;102002.19;4989428;28;20481;-60
2022/07/04 04:16:28;;;;;;;4.05;3.25;;;;;;;11.40;100.00;102001.53;4985313;28;20040;-60
2022/07/04 04:18:53;;;;;;;5.15;3.67;;;;;;;11.44;100.00;101997.38;4978258;28;20034;-60
2022/07/04 04:21:18;;;;;;;4.93;3.85;;;;;;;11.46;100.00;101996.63;4987761;28;20094;-60
2022/07/04 04:23:44;;;;;;;4.18;3.75;;;;;;;11.46;100.00;101996.63;4988225;28;20053;-59
2022/07/04 04:26:10;;;;;;;4.88;3.97;;;;;;;11.51;100.00;102010.69;4988569;28;20026;-60
2022/07/04 04:28:35;;;;;;;5.25;4.50;;;;;;;11.55;100.00;102011.72;4988180;28;20030;-59
2022/07/04 04:31:00;;;;;;;7.22;4.53;;;;;;;11.59;100.00;102012.75;4988580;28;20041;-60
2022/07/04 04:33:26;;;;;;;5.70;4.55;;;;;;;11.63;100.00;102022.47;4988052;28;20038;-60
2022/07/04 04:35:51;;;;;;;10.23;5.50;;;;;;;11.69;100.00;102019.28;4988482;28;20030;-60
2022/07/04 04:38:16;;;;;;;7.35;4.90;;;;;;;11.74;100.00;102029.06;4988234;28;20136;-60
2022/07/04 04:40:41;;;;;;;6.22;4.80;;;;;;;11.80;100.00;102023.25;4975964;28;20022;-59
2022/07/04 04:43:07;;;;;;;4.65;4.15;;;;;;;11.88;100.00;102021.00;4977090;28;20042;-59
2022/07/04 04:45:32;;;;;;;4.07;3.55;;;;;;;11.94;100.00;102025.59;4984465;28;20372;-60
2022/07/04 04:47:57;;;;;;;5.88;3.75;;;;;;;12.00;100.00;102016.38;4984152;28;20037;-58
2022/07/04 04:50:23;;;;;;;5.72;4.03;;;;;;;12.08;100.00;102015.81;4987845;28;20045;-60
2022/07/04 04:52:48;;;;;;;5.07;3.92;;;;;;;12.13;100.00;102004.84;4987554;28;20688;-60
2022/07/04 04:55:13;;;;;;;5.13;4.38;;;;;;;12.22;100.00;102006.97;4978348;28;20031;-60
2022/07/04 04:57:38;;;;;;;5.45;3.97;;;;;;;12.29;100.00;102007.22;4984608;28;20030;-59
2022/07/04 05:00:04;;;;;;;5.57;3.95;;;;;;;12.34;100.00;102004.00;4988031;28;20069;-59
2022/07/04 05:02:30;;;;;;;9.18;5.00;;;;;;;12.42;100.00;102004.34;4987386;28;20398;-59
2022/07/04 05:04:55;;;;;;;8.40;4.63;;;;;;;12.52;100.00;102004.75;4974829;28;20022;-60
2022/07/04 05:07:21;;;;;;;8.95;4.50;;;;;;;12.60;100.00;101998.16;4974899;28;20027;-60
2022/07/04 05:09:46;;;;;;;6.15;4.22;;;;;;;12.70;100.00;101999.44;4985581;28;20026;-60
2022/07/04 05:12:12;;;;;;;6.80;4.57;;;;;;;12.75;100.00;101997.03;4987987;28;20194;-60
2022/07/04 05:14:38;;;;;;;7.60;4.53;;;;;;;12.84;100.00;101990.47;4987635;28;20034;-60
2022/07/04 05:17:03;;;;;;;6.75;3.83;;;;;;;12.95;100.00;102003.06;4987979;28;20493;-59
2022/07/04 05:19:29;;;;;;;8.15;4.40;;;;;;;13.04;100.00;101999.94;4987884;28;20031;-60
2022/07/04 05:21:55;;;;;;;7.03;4.32;;;;;;;13.11;100.00;101996.75;4988369;28;20041;-60
2022/07/04 05:24:20;;;;;;;5.15;3.90;;;;;;;13.21;100.00;101998.88;4987504;28;20084;-60
2022/07/04 05:26:45;;;;;;;6.95;4.50;;;;;;;13.31;100.00;102004.47;4988071;28;20552;-61
2022/07/04 05:29:11;;;;;;;5.18;3.70;;;;;;;13.40;100.00;102004.81;4987974;28;20023;-61
2022/07/04 05:31:36;;;;;;;7.32;3.95;;;;;;;13.50;100.00;101994.75;4988011;28;20456;-60
2022/07/04 05:34:01;;;;;;;8.93;4.55;;;;;;;13.55;100.00;101998.44;4991431;28;20030;-60
2022/07/04 05:36:27;;;;;;;5.80;3.60;;;;;;;13.64;100.00;101998.81;4991691;28;20042;-59
2022/07/04 05:38:53;;;;;;;7.40;3.72;;;;;;;13.74;100.00;102001.75;4991316;28;20051;-60
2022/07/04 05:41:18;;;;;;;5.80;4.05;;;;;;;13.82;100.00;102002.91;4980579;28;20031;-60
2022/07/04 05:43:44;;;;;;;8.43;4.25;;;;;;;13.90;100.00;102011.94;4989255;28;20034;-59
2022/07/04 05:46:10;;;;;;;8.98;4.30;;;;;;;13.97;100.00;102009.53;4991068;28;20113;-60
2022/07/04 05:48:35;;;;;;;7.50;4.05;;;;;;;14.05;100.00;102015.91;4991568;28;20058;-60
2022/07/04 05:51:03;;;;;;;5.60;3.38;;;;;;;14.19;100.00;102007.72;4987467;28;20031;-60
2022/07/04 05:53:28;;;;;;;5.72;3.40;;;;;;;14.30;100.00;102009.00;4978036;28;20031;-60
2022/07/04 05:55:53;;;;;;;6.40;3.15;;;;;;;14.45;100.00;102006.00;4978174;28;20084;-60
2022/07/04 05:58:19;;;;;;;4.22;3.22;;;;;;;14.60;100.00;102003.06;4983030;28;20030;-60
2022/07/04 06:00:44;;;;;;;5.63;2.92;;;;;;;14.75;100.00;102014.84;4980422;28;20446;-61
2022/07/04 06:03:09;;;;;;;5.22;2.78;;;;;;;14.92;100.00;102011.91;4986878;28;20061;-61
2022/07/04 06:05:35;;;;;;;5.53;2.47;;;;;;;15.10;100.00;102022.97;4975868;28;20022;-60
2022/07/04 06:08:01;;;;;;;8.05;3.20;;;;;;;15.29;99.98;102023.53;4983797;28;20026;-61
2022/07/04 06:10:27;;;;;;;8.65;3.28;;;;;;;15.43;97.24;102025.69;4978561;28;20039;-61
2022/07/04 06:12:53;;;;;;;3.78;2.55;;;;;;;15.53;97.20;102019.91;4975603;28;20477;-61
2022/07/04 06:15:18;;;;;;;4.80;2.00;;;;;;;15.72;97.23;102017.84;4975293;28;20019;-61
2022/07/04 06:17:43;;;;;;;6.40;2.92;;;;;;;15.93;96.01;102014.06;4972413;28;20023;-61
2022/07/04 06:20:09;;;;;;;3.95;2.00;;;;;;;16.11;94.21;102011.13;4981399;28;20041;-61
2022/07/04 06:22:42;;;;;;;5.93;2.40;;;;;;;16.30;93.07;102009.91;4986346;28;20018;-61
2022/07/04 06:25:15;;;;;;;7.43;2.55;;;;;;;16.30;91.76;102016.84;4986764;28;20104;-61
2022/07/04 06:27:42;;;;;;;6.43;3.30;;;;;;;16.38;91.09;102012.72;4977479;28;20606;-61
2022/07/04 06:30:08;;;;;;;2.42;2.00;;;;;;;16.59;91.45;102021.06;4974121;28;20054;-61
2022/07/04 06:32:52;;;;;;;6.40;2.30;;;;;;;16.85;89.98;102016.53;4989665;28;20092;-61
2022/07/04 06:38:05;;;;;;;5.53;2.13;;;;;;;17.00;88.01;102015.97;4990298;28;20536;-61
2022/07/04 06:40:31;;;;;;;4.57;2.38;;;;;;;17.17;87.17;102007.69;4989710;28;20097;-61
2022/07/04 06:42:56;;;;;;;6.10;2.65;;;;;;;17.26;86.98;102007.00;4988410;28;20041;-61
2022/07/04 06:45:21;;;;;;;4.45;2.28;;;;;;;17.51;87.84;102016.31;4989117;28;20026;-60
2022/07/04 06:47:47;;;;;;;4.80;2.22;;;;;;;17.71;85.60;102015.84;4989488;28;20049;-61
2022/07/04 06:50:12;;;;;;;4.75;2.42;;;;;;;17.80;86.78;102009.91;4981185;28;20108;-62
2022/07/04 06:52:38;;;;;;;8.15;2.83;;;;;;;17.86;83.03;102014.41;4989467;28;20033;-61
2022/07/04 06:55:05;;;;;;;6.80;2.13;;;;;;;17.98;82.60;102024.22;4989531;28;20342;-61
2022/07/04 06:57:30;;;;;;;5.03;2.10;;;;;;;17.86;81.84;102024.88;4984758;28;20106;-61
2022/07/04 06:59:56;;;;;;;6.45;2.88;;;;;;;17.66;81.63;102022.72;4988539;28;20037;-61
2022/07/04 07:02:21;;;;;;;11.35;2.92;;;;;;;17.64;82.59;102024.44;4989942;28;20156;-61
2022/07/04 07:04:46;;;;;;;4.80;2.60;;;;;;;17.71;82.85;102015.84;4990033;28;20019;-61
2022/07/04 07:07:12;;;;;;;5.75;2.55;;;;;;;17.72;83.52;102012.34;4989773;28;20117;-61
2022/07/04 07:09:37;;;;;;;6.10;2.17;;;;;;;17.63;83.45;102009.53;4990084;28;20034;-61
2022/07/04 07:12:02;;;;;;;3.35;2.25;;;;;;;17.60;83.79;102006.88;4989483;28;20050;-61
2022/07/04 07:14:28;;;;;;;6.43;2.28;;;;;;;17.83;84.58;102003.81;4990149;28;20129;-61
2022/07/04 07:16:53;;;;;;;7.13;3.00;;;;;;;17.80;80.84;102004.66;4989655;28;20065;-61
2022/07/04 07:19:19;;;;;;;6.43;2.05;;;;;;;18.13;81.49;102007.94;4989920;28;20089;-61
2022/07/04 07:21:44;;;;;;;5.43;2.45;;;;;;;18.28;79.89;102001.22;4975477;28;20010;-61
2022/07/04 07:24:09;;;;;;;4.53;2.63;;;;;;;18.47;81.97;101987.56;4989842;28;20029;-62
2022/07/04 07:26:35;;;;;;;6.35;2.17;;;;;;;18.82;79.52;102003.88;4976247;28;20071;-60
2022/07/04 07:29:00;;;;;;;4.03;1.90;;;;;;;18.85;76.84;102001.31;4989284;28;20482;-61
2022/07/04 07:31:25;;;;;;;6.10;2.40;;;;;;;18.89;75.24;102005.75;4989359;28;20034;-61
2022/07/04 07:33:51;;;;;;;5.90;2.50;;;;;;;18.89;74.03;102005.75;4989926;28;20101;-61
2022/07/04 07:36:16;;;;;;;5.68;2.10;;;;;;;19.07;75.57;102010.41;4989848;28;20139;-61
2022/07/04 07:38:41;;;;;;;3.63;1.98;;;;;;;19.29;75.34;102020.38;4989587;28;20058;-61
2022/07/04 07:41:08;;;;;;;4.18;1.33;;;;;;;19.22;72.38;102024.66;4989339;28;20492;-62
2022/07/04 07:43:34;;;;;;;3.45;1.17;;;;;;;19.35;71.03;102020.47;4976103;28;20505;-60
2022/07/04 07:45:59;;;;;;;2.42;1.30;;;;;;;19.43;71.02;102024.06;4988801;28;20026;-62
2022/07/04 07:48:25;;;;;;;3.38;1.13;;;;;;;19.77;71.38;102013.09;4988298;28;20386;-62
2022/07/04 07:50:50;;;;;;;2.83;1.35;;;;;;;19.97;68.85;102006.34;4989028;28;20269;-61
2022/07/04 07:53:16;;;;;;;4.20;1.38;;;;;;;19.97;67.76;102006.34;4989347;28;20030;-62
2022/07/04 07:55:41;;;;;;;2.05;0.88;;;;;;;20.37;67.44;102004.13;4988028;28;20509;-62
2022/07/04 07:58:07;;;;;;;2.30;1.00;;;;;;;20.46;65.10;101990.16;4988908;28;20199;-62
2022/07/04 08:00:32;;;;;;;4.38;1.20;;;;;;;20.69;62.82;101991.22;4989107;28;20117;-62
2022/07/04 08:05:41;;;;;;;2.47;1.15;;;;;;;21.07;63.58;101989.75;4989405;28;20501;-61
2022/07/04 08:08:07;;;;;;;1.75;0.90;;;;;;;21.29;59.92;101984.63;4988286;28;20019;-62
2022/07/04 08:10:32;;;;;;;2.28;1.00;;;;;;;21.53;59.57;101978.59;4988577;28;20684;-60
2022/07/04 08:12:58;;;;;;;2.42;0.80;;;;;;;21.43;58.61;101990.84;4988869;28;20049;-62
2022/07/04 08:15:24;;;;;;;1.77;0.90;;;;;;;21.71;59.93;101990.09;4989168;28;20450;-62
2022/07/04 08:17:50;;;;;;;1.27;0.70;;;;;;;21.94;57.92;101991.94;4988395;28;20062;-61
2022/07/04 08:20:16;;;;;;;2.72;1.13;;;;;;;22.20;58.14;101991.09;4975407;28;20064;-61
2022/07/04 08:22:41;;;;;;;3.20;0.90;;;;;;;22.31;56.44;101994.63;4978924;28;20022;-61
2022/07/04 08:25:07;;;;;;;3.08;1.35;;;;;;;22.49;55.96;101991.97;4972950;28;20022;-61
2022/07/04 08:27:32;;;;;;;1.27;0.80;;;;;;;22.64;56.62;102001.72;4972688;28;20034;-62
2022/07/04 08:29:57;;;;;;;2.50;0.80;;;;;;;22.74;54.77;102008.75;4974073;28;20030;-62
2022/07/04 08:32:23;;;;;;;3.83;0.88;;;;;;;22.90;56.22;102009.59;4977939;28;20058;-61
2022/07/04 08:34:48;;;;;;;2.35;0.85;;;;;;;23.10;53.53;102010.44;4971970;28;20145;-62
2022/07/04 08:37:15;;;;;;;3.35;1.15;;;;;;;23.14;53.13;102012.22;4973999;28;20049;-61
2022/07/04 08:39:40;;;;;;;1.88;0.80;;;;;;;23.20;53.58;102012.22;4976968;28;20026;-62
2022/07/04 08:42:12;;;;;;;4.70;1.30;;;;;;;22.76;52.81;102007.00;4981215;28;20037;-62
2022/07/04 08:44:41;;;;;;;2.47;1.30;;;;;;;22.16;54.59;102010.47;4980520;28;20031;-62
2022/07/04 08:47:09;;;;;;;2.45;0.88;;;;;;;22.48;54.91;102003.44;4985110;28;20058;-62
2022/07/04 08:49:34;;;;;;;3.10;0.90;;;;;;;22.81;54.43;102008.75;4988169;28;20030;-62
2022/07/04 08:52:02;;;;;;;1.17;0.60;;;;;;;23.14;54.97;102007.81;4970785;28;20497;-62
2022/07/04 09:00:19;;;;;;;3.13;0.88;;;;;;;23.73;52.77;102011.16;4963933;28;20163;-61
2022/07/04 09:02:44;;;;;;;2.40;0.93;;;;;;;23.81;51.91;102016.41;4962416;28;20043;-60
2022/07/04 09:05:10;;;;;;;2.35;1.10;;;;;;;23.87;51.52;102013.75;4968643;28;20042;-63
2022/07/04 09:07:35;;;;;;;3.50;1.13;;;;;;;23.89;51.46;102014.59;4970519;28;20059;-62
2022/07/04 09:10:02;;;;;;;2.38;0.88;;;;;;;24.02;53.66;102015.41;4972213;28;20081;-62
2022/07/04 09:12:27;;;;;;;2.00;1.00;;;;;;;24.10;52.57;102012.72;4970163;28;20459;-62
2022/07/04 09:14:53;;;;;;;4.93;1.38;;;;;;;24.25;51.71;102006.47;4971574;28;20033;-62
2022/07/04 09:17:18;;;;;;;2.88;1.10;;;;;;;24.21;52.29;102002.94;4968440;28;20022;-62
2022/07/04 09:19:44;;;;;;;2.13;0.90;;;;;;;24.37;52.38;102007.25;4977182;28;20037;-62
2022/07/04 09:22:14;;;;;;;2.65;0.98;;;;;;;24.41;51.08;102009.88;4987871;28;20041;-62
2022/07/04 09:24:52;;;;;;;2.28;0.88;;;;;;;24.46;52.41;102005.44;4982049;28;20109;-61
2022/07/04 09:27:30;;;;;;;3.42;1.17;;;;;;;24.43;51.10;102010.75;4985665;28;20532;-61
2022/07/04 09:29:56;;;;;;;3.05;1.00;;;;;;;23.69;50.75;102005.00;4987903;28;20508;-62
2022/07/04 09:32:37;;;;;;;3.95;0.88;;;;;;;24.05;54.67;102004.78;4987308;28;20030;-61
2022/07/04 09:35:05;;;;;;;2.30;0.90;;;;;;;24.37;56.68;102007.25;4987479;28;20066;-61
2022/07/04 09:37:42;;;;;;;4.03;0.85;;;;;;;24.67;53.59;102000.84;4987587;28;20030;-62
2022/07/04 09:40:10;;;;;;;2.97;0.90;;;;;;;24.89;51.94;102003.28;4987512;28;20080;-62
2022/07/04 09:42:40;;;;;;;3.60;1.00;;;;;;;25.00;50.68;102004.97;4987733;28;20109;-62
2022/07/04 09:45:08;;;;;;;3.58;0.98;;;;;;;25.11;50.76;102005.75;4976269;28;20091;-61
2022/07/04 09:47:33;;;;;;;2.35;1.17;;;;;;;24.71;50.03;102006.97;4974985;28;20061;-62
2022/07/04 09:50:14;;;;;;;3.40;1.38;;;;;;;24.28;50.54;102001.16;4980302;28;20031;-62
2022/07/04 09:52:53;;;;;;;2.65;1.00;;;;;;;23.85;50.88;102005.78;4981123;28;20445;-62
2022/07/04 09:55:29;;;;;;;1.85;1.00;;;;;;;23.67;53.03;102006.78;4986579;28;20053;-61
2022/07/04 09:58:00;;;;;;;2.13;0.80;;;;;;;23.74;53.97;102008.53;4987620;28;20048;-61
2022/07/04 10:00:28;;;;;;;2.88;1.00;;;;;;;23.56;52.01;101998.00;4987282;28;20289;-62
2022/07/04 10:02:55;;;;;;;2.00;1.08;;;;;;;23.43;53.73;102000.72;4979979;28;20093;-62
2022/07/04 10:05:26;;;;;;;2.25;0.90;;;;;;;23.47;53.17;102006.88;4987466;28;20022;-62
2022/07/04 10:07:54;;;;;;;2.72;0.90;;;;;;;23.39;51.95;102006.84;4987307;28;20041;-61
2022/07/04 10:10:31;;;;;;;3.00;0.90;;;;;;;23.31;51.69;102000.72;4987008;28;20047;-62
2022/07/04 10:13:01;;;;;;;3.42;1.00;;;;;;;23.44;52.61;101993.66;4986765;28;20039;-60
2022/07/04 10:15:27;;;;;;;2.35;1.00;;;;;;;23.58;53.88;101998.88;4986992;28;20553;-62
2022/07/04 10:17:52;;;;;;;3.90;1.20;;;;;;;23.60;52.65;101992.69;4987903;28;20030;-62
2022/07/04 10:20:18;;;;;;;2.72;0.82;;;;;;;23.86;53.81;101990.81;4981817;28;20034;-62
2022/07/04 10:22:43;;;;;;;1.80;1.00;;;;;;;24.20;54.34;101987.97;4982888;28;20122;-62
2022/07/04 10:25:10;;;;;;;1.67;0.82;;;;;;;24.34;53.67;101984.31;4989934;28;20026;-62
2022/07/04 10:27:36;;;;;;;4.20;1.20;;;;;;;24.44;51.60;101991.31;4982348;28;20074;-62
2022/07/04 10:30:06;;;;;;;2.90;1.30;;;;;;;24.53;52.09;101989.47;4986812;28;20084;-63
2022/07/04 10:32:33;;;;;;;4.53;1.33;;;;;;;24.45;48.98;101987.78;4975314;28;20027;-62
2022/07/04 10:34:58;;;;;;;4.07;1.30;;;;;;;24.28;47.91;101981.75;4984723;28;20054;-61
2022/07/04 10:37:23;;;;;;;3.38;1.05;;;;;;;24.14;49.78;101979.16;4989559;28;20474;-62
2022/07/04 10:39:49;;;;;;;2.75;0.98;;;;;;;24.18;49.89;101973.84;4978921;28;20018;-62
2022/07/04 10:42:24;;;;;;;2.45;1.00;;;;;;;24.21;50.07;101976.47;4985159;28;20062;-62
2022/07/04 10:44:50;;;;;;;3.13;1.10;;;;;;;24.28;47.86;101974.69;4986186;28;20034;-62
2022/07/04 10:47:24;;;;;;;2.90;0.80;;;;;;;24.14;48.71;101966.78;4989943;28;20539;-62
2022/07/04 10:49:51;;;;;;;1.48;0.77;;;;;;;24.06;48.70;101976.56;4985410;28;20254;-63
2022/07/04 10:52:17;;;;;;;3.85;1.10;;;;;;;23.92;48.54;101966.97;4985358;28;20517;-62
2022/07/04 10:54:43;;;;;;;1.63;1.10;;;;;;;24.11;49.45;101964.16;4978381;28;20027;-62
2022/07/04 10:57:16;;;;;;;4.13;1.38;;;;;;;24.43;49.83;101960.41;4978373;28;20526;-62
2022/07/04 10:59:44;;;;;;;3.88;1.10;;;;;;;24.54;49.32;101952.38;4978313;28;20026;-62
2022/07/04 11:02:09;;;;;;;2.28;1.38;;;;;;;24.63;48.54;101951.41;4978545;28;20104;-62
2022/07/04 11:04:45;;;;;;;1.85;0.77;;;;;;;24.76;49.16;101962.78;4982493;28;20058;-63
2022/07/04 11:07:11;;;;;;;4.03;1.40;;;;;;;24.73;47.05;101964.56;4974781;28;20030;-62
2022/07/04 11:09:36;;;;;;;4.72;1.00;;;;;;;24.63;47.25;101956.72;4971423;28;20054;-64
2022/07/04 11:12:05;;;;;;;3.22;1.33;;;;;;;24.39;47.64;101953.41;4976994;28;20042;-63
2022/07/04 11:14:30;;;;;;;3.13;1.25;;;;;;;24.40;48.54;101957.81;4971302;28;20061;-62
2022/07/04 11:16:55;;;;;;;3.55;0.85;;;;;;;24.48;50.69;101956.84;4979481;28;20491;-62
2022/07/04 11:19:22;;;;;;;2.58;1.00;;;;;;;24.29;49.53;101951.72;4976287;28;20023;-63
2022/07/04 11:21:47;;;;;;;3.38;1.10;;;;;;;23.97;49.61;101957.22;4979139;28;20105;-62
2022/07/04 11:24:13;;;;;;;2.85;1.15;;;;;;;23.79;50.98;101960.84;4973123;28;20180;-62
2022/07/04 11:26:38;;;;;;;2.67;1.10;;;;;;;23.66;51.26;101965.34;4976103;28;20383;-63
2022/07/04 11:29:04;;;;;;;5.00;1.75;;;;;;;23.55;51.95;101959.25;4977542;28;20093;-62
2022/07/04 11:31:49;;;;;;;2.70;1.20;;;;;;;23.45;52.93;101958.38;4976550;28;20397;-62
2022/07/04 11:34:14;;;;;;;4.60;1.40;;;;;;;23.50;54.58;101957.47;4980446;28;20038;-63
2022/07/04 11:36:42;;;;;;;5.85;1.50;;;;;;;23.75;56.22;101948.53;4976919;28;20049;-63